sensor_id;sensor_type;location;lat;lon;timestamp;P1;durP1;ratioP1;P2;durP2;ratioP2
21420;SDS011;10871;50.144;8.428;2022-10-15T00:01:12;7.22;;;5.30;;
21420;SDS011;10871;50.144;8.428;2022-10-15T00:03:39;8.38;;;5.15;;
21420;SDS011;10871;50.144;8.428;2022-10-15T00:06:07;6.07;;;4.85;;
21420;SDS011;10871;50.144;8.428;2022-10-15T00:08:34;7.53;;;4.70;;
21420;SDS011;10871;50.144;8.428;2022-10-15T00:11:19;4.50;;;4.10;;
21420;SDS011;10871;50.144;8.428;2022-10-15T00:13:47;6.13;;;4.13;;
21420;SDS011;10871;50.144;8.428;2022-10-15T00:16:14;5.70;;;3.80;;
21420;SDS011;10871;50.144;8.428;2022-10-15T00:18:41;4.60;;;3.88;;
21420;SDS011;10871;50.144;8.428;2022-10-15T00:21:08;4.78;;;3.70;;
21420;SDS011;10871;50.144;8.428;2022-10-15T00:23:35;5.25;;;3.90;;
21420;SDS011;10871;50.144;8.428;2022-10-15T00:26:03;3.75;;;3.40;;
21420;SDS011;10871;50.144;8.428;2022-10-15T00:28:29;5.47;;;3.55;;
21420;SDS011;10871;50.144;8.428;2022-10-15T00:31:03;3.80;;;3.50;;
21420;SDS011;10871;50.144;8.428;2022-10-15T00:33:30;3.90;;;3.50;;
21420;SDS011;10871;50.144;8.428;2022-10-15T00:36:06;4.07;;;3.45;;
21420;SDS011;10871;50.144;8.428;2022-10-15T00:38:33;6.47;;;3.88;;
21420;SDS011;10871;50.144;8.428;2022-10-15T00:41:00;4.18;;;3.72;;
21420;SDS011;10871;50.144;8.428;2022-10-15T00:46:11;4.05;;;3.20;;
21420;SDS011;10871;50.144;8.428;2022-10-15T00:48:40;4.72;;;3.33;;
21420;SDS011;10871;50.144;8.428;2022-10-15T00:51:06;5.05;;;3.22;;
21420;SDS011;10871;50.144;8.428;2022-10-15T00:53:33;4.03;;;3.28;;
21420;SDS011;10871;50.144;8.428;2022-10-15T00:55:59;4.05;;;3.28;;
21420;SDS011;10871;50.144;8.428;2022-10-15T00:58:26;3.30;;;2.97;;
21420;SDS011;10871;50.144;8.428;2022-10-15T01:00:55;3.78;;;3.03;;
21420;SDS011;10871;50.144;8.428;2022-10-15T01:03:22;4.85;;;3.20;;
21420;SDS011;10871;50.144;8.428;2022-10-15T01:05:49;3.33;;;3.00;;
21420;SDS011;10871;50.144;8.428;2022-10-15T01:08:16;3.60;;;2.70;;
21420;SDS011;10871;50.144;8.428;2022-10-15T01:13:16;4.03;;;3.03;;
21420;SDS011;10871;50.144;8.428;2022-10-15T01:15:48;5.32;;;2.85;;
21420;SDS011;10871;50.144;8.428;2022-10-15T01:18:19;3.50;;;2.92;;
21420;SDS011;10871;50.144;8.428;2022-10-15T01:26:23;3.55;;;2.80;;
21420;SDS011;10871;50.144;8.428;2022-10-15T01:34:10;3.25;;;2.95;;
21420;SDS011;10871;50.144;8.428;2022-10-15T01:36:50;3.95;;;3.22;;
21420;SDS011;10871;50.144;8.428;2022-10-15T01:41:54;5.15;;;3.08;;
21420;SDS011;10871;50.144;8.428;2022-10-15T01:44:32;4.38;;;3.03;;
21420;SDS011;10871;50.144;8.428;2022-10-15T01:47:19;3.30;;;2.90;;
21420;SDS011;10871;50.144;8.428;2022-10-15T01:49:48;5.03;;;2.60;;
21420;SDS011;10871;50.144;8.428;2022-10-15T01:52:17;11.02;;;3.15;;
21420;SDS011;10871;50.144;8.428;2022-10-15T01:54:45;6.97;;;3.65;;
21420;SDS011;10871;50.144;8.428;2022-10-15T01:57:12;4.95;;;3.15;;
21420;SDS011;10871;50.144;8.428;2022-10-15T01:59:40;6.50;;;3.22;;
21420;SDS011;10871;50.144;8.428;2022-10-15T02:02:07;5.10;;;3.03;;
21420;SDS011;10871;50.144;8.428;2022-10-15T02:04:33;4.72;;;3.08;;
21420;SDS011;10871;50.144;8.428;2022-10-15T02:07:14;5.05;;;2.80;;
21420;SDS011;10871;50.144;8.428;2022-10-15T02:09:56;8.40;;;3.50;;
21420;SDS011;10871;50.144;8.428;2022-10-15T02:12:43;8.10;;;4.90;;
21420;SDS011;10871;50.144;8.428;2022-10-15T02:15:20;15.50;;;7.93;;
21420;SDS011;10871;50.144;8.428;2022-10-15T02:25:40;12.30;;;6.03;;
21420;SDS011;10871;50.144;8.428;2022-10-15T02:28:08;9.80;;;5.50;;
21420;SDS011;10871;50.144;8.428;2022-10-15T02:30:36;7.05;;;4.60;;
21420;SDS011;10871;50.144;8.428;2022-10-15T02:33:04;8.05;;;4.35;;
21420;SDS011;10871;50.144;8.428;2022-10-15T02:35:30;7.60;;;4.00;;
21420;SDS011;10871;50.144;8.428;2022-10-15T02:37:58;10.98;;;4.53;;
21420;SDS011;10871;50.144;8.428;2022-10-15T02:40:27;6.63;;;4.45;;
21420;SDS011;10871;50.144;8.428;2022-10-15T02:42:55;6.30;;;4.45;;
21420;SDS011;10871;50.144;8.428;2022-10-15T02:45:22;6.93;;;4.25;;
21420;SDS011;10871;50.144;8.428;2022-10-15T02:47:49;8.27;;;4.05;;
21420;SDS011;10871;50.144;8.428;2022-10-15T02:50:16;11.05;;;4.15;;
21420;SDS011;10871;50.144;8.428;2022-10-15T02:52:43;29.52;;;4.80;;
21420;SDS011;10871;50.144;8.428;2022-10-15T02:55:10;11.32;;;4.10;;
21420;SDS011;10871;50.144;8.428;2022-10-15T02:57:36;20.08;;;4.35;;
21420;SDS011;10871;50.144;8.428;2022-10-15T03:00:04;14.13;;;4.32;;
21420;SDS011;10871;50.144;8.428;2022-10-15T03:02:30;20.77;;;4.20;;
21420;SDS011;10871;50.144;8.428;2022-10-15T03:04:57;22.75;;;4.28;;
21420;SDS011;10871;50.144;8.428;2022-10-15T03:07:23;14.10;;;4.35;;
21420;SDS011;10871;50.144;8.428;2022-10-15T03:09:50;14.77;;;4.28;;
21420;SDS011;10871;50.144;8.428;2022-10-15T03:12:17;96.60;;;6.18;;
21420;SDS011;10871;50.144;8.428;2022-10-15T03:14:46;21.77;;;4.80;;
21420;SDS011;10871;50.144;8.428;2022-10-15T03:17:13;17.45;;;4.65;;
21420;SDS011;10871;50.144;8.428;2022-10-15T03:19:39;18.90;;;4.97;;
21420;SDS011;10871;50.144;8.428;2022-10-15T03:22:05;21.08;;;5.40;;
21420;SDS011;10871;50.144;8.428;2022-10-15T03:24:41;15.52;;;4.72;;
21420;SDS011;10871;50.144;8.428;2022-10-15T03:27:07;18.92;;;5.38;;
21420;SDS011;10871;50.144;8.428;2022-10-15T03:29:34;11.65;;;4.20;;
21420;SDS011;10871;50.144;8.428;2022-10-15T03:32:02;10.88;;;3.92;;
21420;SDS011;10871;50.144;8.428;2022-10-15T03:34:28;6.63;;;3.38;;
21420;SDS011;10871;50.144;8.428;2022-10-15T03:36:55;4.35;;;2.70;;
21420;SDS011;10871;50.144;8.428;2022-10-15T03:39:21;6.05;;;2.83;;
21420;SDS011;10871;50.144;8.428;2022-10-15T03:41:52;5.47;;;2.28;;
21420;SDS011;10871;50.144;8.428;2022-10-15T03:44:24;4.53;;;2.53;;
21420;SDS011;10871;50.144;8.428;2022-10-15T03:47:01;4.85;;;2.60;;
21420;SDS011;10871;50.144;8.428;2022-10-15T03:49:38;3.55;;;2.40;;
21420;SDS011;10871;50.144;8.428;2022-10-15T03:52:05;3.40;;;2.10;;
21420;SDS011;10871;50.144;8.428;2022-10-15T03:54:31;4.70;;;2.47;;
21420;SDS011;10871;50.144;8.428;2022-10-15T03:56:58;4.88;;;2.70;;
21420;SDS011;10871;50.144;8.428;2022-10-15T03:59:35;8.32;;;3.10;;
21420;SDS011;10871;50.144;8.428;2022-10-15T04:02:02;6.40;;;3.33;;
21420;SDS011;10871;50.144;8.428;2022-10-15T04:04:30;7.75;;;3.72;;
21420;SDS011;10871;50.144;8.428;2022-10-15T04:06:57;7.28;;;3.75;;
21420;SDS011;10871;50.144;8.428;2022-10-15T04:09:24;14.40;;;4.30;;
21420;SDS011;10871;50.144;8.428;2022-10-15T04:11:50;8.07;;;3.80;;
21420;SDS011;10871;50.144;8.428;2022-10-15T04:14:16;9.18;;;4.30;;
21420;SDS011;10871;50.144;8.428;2022-10-15T04:16:45;8.30;;;3.83;;
21420;SDS011;10871;50.144;8.428;2022-10-15T04:19:16;6.35;;;3.58;;
21420;SDS011;10871;50.144;8.428;2022-10-15T04:21:52;7.55;;;3.53;;
21420;SDS011;10871;50.144;8.428;2022-10-15T04:24:29;5.72;;;2.92;;
21420;SDS011;10871;50.144;8.428;2022-10-15T04:26:55;5.45;;;3.17;;
21420;SDS011;10871;50.144;8.428;2022-10-15T04:29:23;5.55;;;2.80;;
21420;SDS011;10871;50.144;8.428;2022-10-15T04:31:49;3.60;;;2.30;;
21420;SDS011;10871;50.144;8.428;2022-10-15T04:34:16;2.97;;;2.25;;
21420;SDS011;10871;50.144;8.428;2022-10-15T04:36:42;3.92;;;2.10;;
21420;SDS011;10871;50.144;8.428;2022-10-15T04:39:16;4.10;;;2.60;;
21420;SDS011;10871;50.144;8.428;2022-10-15T04:41:42;3.15;;;2.28;;
21420;SDS011;10871;50.144;8.428;2022-10-15T04:44:15;3.47;;;2.30;;
21420;SDS011;10871;50.144;8.428;2022-10-15T04:46:48;4.35;;;2.67;;
21420;SDS011;10871;50.144;8.428;2022-10-15T04:49:29;5.18;;;3.00;;
21420;SDS011;10871;50.144;8.428;2022-10-15T04:51:55;3.83;;;2.67;;
21420;SDS011;10871;50.144;8.428;2022-10-15T04:54:40;3.92;;;2.83;;
21420;SDS011;10871;50.144;8.428;2022-10-15T04:57:07;5.38;;;3.45;;
21420;SDS011;10871;50.144;8.428;2022-10-15T04:59:34;8.20;;;5.20;;
21420;SDS011;10871;50.144;8.428;2022-10-15T05:02:26;10.45;;;4.82;;
21420;SDS011;10871;50.144;8.428;2022-10-15T05:05:06;8.98;;;5.03;;
21420;SDS011;10871;50.144;8.428;2022-10-15T05:07:39;11.80;;;5.53;;
21420;SDS011;10871;50.144;8.428;2022-10-15T05:10:07;9.52;;;5.25;;
21420;SDS011;10871;50.144;8.428;2022-10-15T05:12:33;9.45;;;5.82;;
21420;SDS011;10871;50.144;8.428;2022-10-15T05:15:00;11.05;;;6.35;;
21420;SDS011;10871;50.144;8.428;2022-10-15T05:17:28;12.55;;;6.93;;
21420;SDS011;10871;50.144;8.428;2022-10-15T05:19:57;9.95;;;6.63;;
21420;SDS011;10871;50.144;8.428;2022-10-15T05:22:26;11.30;;;6.75;;
21420;SDS011;10871;50.144;8.428;2022-10-15T05:24:56;11.40;;;6.63;;
21420;SDS011;10871;50.144;8.428;2022-10-15T05:29:58;14.98;;;6.32;;
21420;SDS011;10871;50.144;8.428;2022-10-15T05:32:33;12.23;;;6.35;;
21420;SDS011;10871;50.144;8.428;2022-10-15T05:35:00;11.55;;;6.72;;
21420;SDS011;10871;50.144;8.428;2022-10-15T05:37:40;13.13;;;7.00;;
21420;SDS011;10871;50.144;8.428;2022-10-15T05:40:07;15.45;;;7.57;;
21420;SDS011;10871;50.144;8.428;2022-10-15T05:42:34;15.80;;;7.75;;
21420;SDS011;10871;50.144;8.428;2022-10-15T05:45:00;13.57;;;6.93;;
21420;SDS011;10871;50.144;8.428;2022-10-15T05:47:27;11.90;;;6.47;;
21420;SDS011;10871;50.144;8.428;2022-10-15T05:50:10;9.63;;;5.35;;
21420;SDS011;10871;50.144;8.428;2022-10-15T05:52:41;10.00;;;5.15;;
21420;SDS011;10871;50.144;8.428;2022-10-15T05:55:43;8.48;;;4.30;;
21420;SDS011;10871;50.144;8.428;2022-10-15T05:58:09;4.47;;;3.30;;
21420;SDS011;10871;50.144;8.428;2022-10-15T06:00:35;5.45;;;3.63;;
21420;SDS011;10871;50.144;8.428;2022-10-15T06:03:02;5.95;;;3.95;;
21420;SDS011;10871;50.144;8.428;2022-10-15T06:05:28;6.68;;;4.13;;
21420;SDS011;10871;50.144;8.428;2022-10-15T06:07:55;6.45;;;4.68;;
21420;SDS011;10871;50.144;8.428;2022-10-15T06:10:21;6.68;;;4.60;;
21420;SDS011;10871;50.144;8.428;2022-10-15T06:12:48;6.40;;;4.40;;
21420;SDS011;10871;50.144;8.428;2022-10-15T06:15:15;5.85;;;3.85;;
21420;SDS011;10871;50.144;8.428;2022-10-15T06:17:41;4.80;;;3.67;;
21420;SDS011;10871;50.144;8.428;2022-10-15T06:20:08;4.13;;;3.50;;
21420;SDS011;10871;50.144;8.428;2022-10-15T06:22:34;4.22;;;3.10;;
21420;SDS011;10871;50.144;8.428;2022-10-15T06:25:06;3.92;;;3.33;;
21420;SDS011;10871;50.144;8.428;2022-10-15T06:27:32;6.40;;;3.53;;
21420;SDS011;10871;50.144;8.428;2022-10-15T06:29:59;3.90;;;3.00;;
21420;SDS011;10871;50.144;8.428;2022-10-15T06:32:25;4.97;;;3.70;;
21420;SDS011;10871;50.144;8.428;2022-10-15T06:34:51;5.63;;;3.88;;
21420;SDS011;10871;50.144;8.428;2022-10-15T06:37:18;5.32;;;3.92;;
21420;SDS011;10871;50.144;8.428;2022-10-15T06:39:44;5.13;;;3.65;;
21420;SDS011;10871;50.144;8.428;2022-10-15T06:42:11;7.82;;;3.92;;
21420;SDS011;10871;50.144;8.428;2022-10-15T06:44:38;8.80;;;4.10;;
21420;SDS011;10871;50.144;8.428;2022-10-15T06:47:04;8.43;;;4.90;;
21420;SDS011;10871;50.144;8.428;2022-10-15T06:49:31;6.88;;;4.50;;
21420;SDS011;10871;50.144;8.428;2022-10-15T06:51:57;6.65;;;4.70;;
21420;SDS011;10871;50.144;8.428;2022-10-15T06:54:29;9.68;;;5.47;;
21420;SDS011;10871;50.144;8.428;2022-10-15T06:56:55;8.27;;;5.25;;
21420;SDS011;10871;50.144;8.428;2022-10-15T06:59:21;9.50;;;5.18;;
21420;SDS011;10871;50.144;8.428;2022-10-15T07:01:48;8.93;;;5.97;;
21420;SDS011;10871;50.144;8.428;2022-10-15T07:04:14;11.77;;;6.22;;
21420;SDS011;10871;50.144;8.428;2022-10-15T07:06:40;14.30;;;6.20;;
21420;SDS011;10871;50.144;8.428;2022-10-15T07:09:06;10.10;;;6.03;;
21420;SDS011;10871;50.144;8.428;2022-10-15T07:11:33;7.18;;;5.60;;
21420;SDS011;10871;50.144;8.428;2022-10-15T07:13:59;7.20;;;4.97;;
21420;SDS011;10871;50.144;8.428;2022-10-15T07:16:25;6.78;;;4.43;;
21420;SDS011;10871;50.144;8.428;2022-10-15T07:18:52;6.40;;;4.57;;
21420;SDS011;10871;50.144;8.428;2022-10-15T07:21:18;8.50;;;5.00;;
21420;SDS011;10871;50.144;8.428;2022-10-15T07:23:44;8.75;;;4.45;;
21420;SDS011;10871;50.144;8.428;2022-10-15T07:26:10;5.68;;;4.78;;
21420;SDS011;10871;50.144;8.428;2022-10-15T07:28:37;8.82;;;5.25;;
21420;SDS011;10871;50.144;8.428;2022-10-15T07:31:05;9.15;;;6.60;;
21420;SDS011;10871;50.144;8.428;2022-10-15T07:33:32;9.43;;;6.40;;
21420;SDS011;10871;50.144;8.428;2022-10-15T07:36:06;9.52;;;6.28;;
21420;SDS011;10871;50.144;8.428;2022-10-15T07:38:33;8.98;;;6.13;;
21420;SDS011;10871;50.144;8.428;2022-10-15T07:41:01;9.10;;;5.97;;
21420;SDS011;10871;50.144;8.428;2022-10-15T07:43:30;8.93;;;6.38;;
21420;SDS011;10871;50.144;8.428;2022-10-15T07:45:57;9.15;;;5.78;;
21420;SDS011;10871;50.144;8.428;2022-10-15T07:48:23;9.85;;;6.03;;
21420;SDS011;10871;50.144;8.428;2022-10-15T07:50:57;7.18;;;5.18;;
21420;SDS011;10871;50.144;8.428;2022-10-15T07:53:23;6.37;;;4.90;;
21420;SDS011;10871;50.144;8.428;2022-10-15T07:55:56;7.05;;;5.55;;
21420;SDS011;10871;50.144;8.428;2022-10-15T07:58:24;8.35;;;5.53;;
21420;SDS011;10871;50.144;8.428;2022-10-15T08:00:50;6.50;;;4.93;;
21420;SDS011;10871;50.144;8.428;2022-10-15T08:03:17;7.45;;;5.22;;
21420;SDS011;10871;50.144;8.428;2022-10-15T08:05:43;6.18;;;4.68;;
21420;SDS011;10871;50.144;8.428;2022-10-15T08:08:09;6.25;;;5.05;;
21420;SDS011;10871;50.144;8.428;2022-10-15T08:10:36;5.82;;;4.03;;
21420;SDS011;10871;50.144;8.428;2022-10-15T08:13:02;5.30;;;4.40;;
21420;SDS011;10871;50.144;8.428;2022-10-15T08:15:28;5.07;;;4.00;;
21420;SDS011;10871;50.144;8.428;2022-10-15T08:17:55;4.40;;;4.00;;
21420;SDS011;10871;50.144;8.428;2022-10-15T08:20:21;6.47;;;4.18;;
21420;SDS011;10871;50.144;8.428;2022-10-15T08:22:48;4.60;;;3.65;;
21420;SDS011;10871;50.144;8.428;2022-10-15T08:25:14;5.65;;;3.80;;
21420;SDS011;10871;50.144;8.428;2022-10-15T08:27:40;4.05;;;3.20;;
21420;SDS011;10871;50.144;8.428;2022-10-15T08:30:08;3.25;;;2.92;;
21420;SDS011;10871;50.144;8.428;2022-10-15T08:32:35;5.32;;;3.20;;
21420;SDS011;10871;50.144;8.428;2022-10-15T08:35:01;4.45;;;3.85;;
21420;SDS011;10871;50.144;8.428;2022-10-15T08:37:30;5.38;;;3.80;;
21420;SDS011;10871;50.144;8.428;2022-10-15T08:39:57;6.40;;;4.65;;
21420;SDS011;10871;50.144;8.428;2022-10-15T08:42:31;7.28;;;4.30;;
21420;SDS011;10871;50.144;8.428;2022-10-15T08:45:02;6.70;;;4.70;;
21420;SDS011;10871;50.144;8.428;2022-10-15T08:47:37;6.82;;;5.75;;
21420;SDS011;10871;50.144;8.428;2022-10-15T08:50:17;8.23;;;6.80;;
21420;SDS011;10871;50.144;8.428;2022-10-15T08:52:45;9.05;;;6.53;;
21420;SDS011;10871;50.144;8.428;2022-10-15T08:55:17;11.23;;;7.57;;
21420;SDS011;10871;50.144;8.428;2022-10-15T08:58:02;9.50;;;7.30;;
21420;SDS011;10871;50.144;8.428;2022-10-15T09:00:42;7.68;;;6.53;;
21420;SDS011;10871;50.144;8.428;2022-10-15T09:08:26;7.90;;;5.40;;
21420;SDS011;10871;50.144;8.428;2022-10-15T09:10:55;5.97;;;4.45;;
21420;SDS011;10871;50.144;8.428;2022-10-15T09:13:32;5.15;;;4.60;;
21420;SDS011;10871;50.144;8.428;2022-10-15T09:16:24;5.03;;;4.00;;
21420;SDS011;10871;50.144;8.428;2022-10-15T09:18:52;5.72;;;4.40;;
21420;SDS011;10871;50.144;8.428;2022-10-15T09:21:19;4.40;;;4.00;;
21420;SDS011;10871;50.144;8.428;2022-10-15T09:23:47;6.47;;;3.60;;
21420;SDS011;10871;50.144;8.428;2022-10-15T09:28:55;3.95;;;3.53;;
21420;SDS011;10871;50.144;8.428;2022-10-15T09:31:24;3.47;;;3.20;;
21420;SDS011;10871;50.144;8.428;2022-10-15T09:33:53;4.30;;;3.25;;
21420;SDS011;10871;50.144;8.428;2022-10-15T09:36:44;3.58;;;3.28;;
21420;SDS011;10871;50.144;8.428;2022-10-15T09:39:17;4.07;;;3.00;;
21420;SDS011;10871;50.144;8.428;2022-10-15T09:44:16;2.97;;;2.78;;
21420;SDS011;10871;50.144;8.428;2022-10-15T09:46:49;3.42;;;2.63;;
21420;SDS011;10871;50.144;8.428;2022-10-15T09:54:50;2.55;;;2.28;;
21420;SDS011;10871;50.144;8.428;2022-10-15T09:57:21;2.53;;;2.33;;
21420;SDS011;10871;50.144;8.428;2022-10-15T09:59:52;4.57;;;2.28;;
21420;SDS011;10871;50.144;8.428;2022-10-15T10:02:20;2.40;;;2.20;;
21420;SDS011;10871;50.144;8.428;2022-10-15T10:04:46;3.55;;;2.20;;
21420;SDS011;10871;50.144;8.428;2022-10-15T10:07:29;1.88;;;1.60;;
21420;SDS011;10871;50.144;8.428;2022-10-15T10:09:56;1.85;;;1.75;;
21420;SDS011;10871;50.144;8.428;2022-10-15T10:12:27;2.33;;;2.13;;
21420;SDS011;10871;50.144;8.428;2022-10-15T10:14:55;4.63;;;2.20;;
21420;SDS011;10871;50.144;8.428;2022-10-15T10:17:23;3.38;;;2.33;;
21420;SDS011;10871;50.144;8.428;2022-10-15T10:22:50;3.33;;;2.40;;
21420;SDS011;10871;50.144;8.428;2022-10-15T10:27:49;5.50;;;2.80;;
21420;SDS011;10871;50.144;8.428;2022-10-15T10:30:15;2.97;;;2.30;;
21420;SDS011;10871;50.144;8.428;2022-10-15T10:32:42;3.10;;;2.80;;
21420;SDS011;10871;50.144;8.428;2022-10-15T10:35:22;3.88;;;3.53;;
21420;SDS011;10871;50.144;8.428;2022-10-15T10:37:49;3.08;;;2.88;;
21420;SDS011;10871;50.144;8.428;2022-10-15T10:40:28;3.67;;;2.65;;
21420;SDS011;10871;50.144;8.428;2022-10-15T10:43:11;3.17;;;2.88;;
21420;SDS011;10871;50.144;8.428;2022-10-15T10:45:37;3.70;;;3.40;;
21420;SDS011;10871;50.144;8.428;2022-10-15T10:48:17;4.18;;;3.20;;
21420;SDS011;10871;50.144;8.428;2022-10-15T10:50:44;5.07;;;3.53;;
21420;SDS011;10871;50.144;8.428;2022-10-15T10:53:23;4.65;;;3.75;;
21420;SDS011;10871;50.144;8.428;2022-10-15T10:55:51;4.25;;;3.85;;
21420;SDS011;10871;50.144;8.428;2022-10-15T10:58:23;5.35;;;4.57;;
21420;SDS011;10871;50.144;8.428;2022-10-15T11:00:52;4.72;;;4.32;;
21420;SDS011;10871;50.144;8.428;2022-10-15T11:03:22;5.00;;;4.50;;
21420;SDS011;10871;50.144;8.428;2022-10-15T11:06:08;4.80;;;4.40;;
21420;SDS011;10871;50.144;8.428;2022-10-15T11:08:45;4.05;;;3.65;;
21420;SDS011;10871;50.144;8.428;2022-10-15T11:11:19;4.30;;;3.90;;
21420;SDS011;10871;50.144;8.428;2022-10-15T11:18:47;2.47;;;1.40;;
21420;SDS011;10871;50.144;8.428;2022-10-15T11:26:29;3.80;;;1.98;;
21420;SDS011;10871;50.144;8.428;2022-10-15T11:29:35;1.93;;;1.67;;
21420;SDS011;10871;50.144;8.428;2022-10-15T11:37:33;2.72;;;1.90;;
21420;SDS011;10871;50.144;8.428;2022-10-15T11:41:06;2.95;;;2.10;;
21420;SDS011;10871;50.144;8.428;2022-10-15T11:43:02;2.67;;;2.15;;
21420;SDS011;10871;50.144;8.428;2022-10-15T11:45:50;4.00;;;2.40;;
21420;SDS011;10871;50.144;8.428;2022-10-15T11:48:23;2.00;;;1.90;;
21420;SDS011;10871;50.144;8.428;2022-10-15T11:50:56;3.15;;;1.80;;
21420;SDS011;10871;50.144;8.428;2022-10-15T11:56:15;2.38;;;1.80;;
21420;SDS011;10871;50.144;8.428;2022-10-15T12:01:22;3.72;;;2.10;;
21420;SDS011;10871;50.144;8.428;2022-10-15T12:03:59;2.40;;;2.05;;
21420;SDS011;10871;50.144;8.428;2022-10-15T12:06:30;4.25;;;2.10;;
21420;SDS011;10871;50.144;8.428;2022-10-15T12:08:57;2.67;;;2.00;;
21420;SDS011;10871;50.144;8.428;2022-10-15T12:13:57;2.13;;;1.92;;
21420;SDS011;10871;50.144;8.428;2022-10-15T12:16:27;3.85;;;2.67;;
21420;SDS011;10871;50.144;8.428;2022-10-15T12:19:03;4.78;;;3.47;;
21420;SDS011;10871;50.144;8.428;2022-10-15T12:21:38;5.35;;;3.40;;
21420;SDS011;10871;50.144;8.428;2022-10-15T12:24:08;3.70;;;3.40;;
21420;SDS011;10871;50.144;8.428;2022-10-15T12:26:51;4.07;;;3.47;;
21420;SDS011;10871;50.144;8.428;2022-10-15T12:29:19;4.63;;;3.50;;
21420;SDS011;10871;50.144;8.428;2022-10-15T12:31:49;4.97;;;4.47;;
21420;SDS011;10871;50.144;8.428;2022-10-15T12:34:23;6.93;;;4.60;;
21420;SDS011;10871;50.144;8.428;2022-10-15T12:39:36;6.57;;;4.60;;
21420;SDS011;10871;50.144;8.428;2022-10-15T12:42:29;6.53;;;4.78;;
21420;SDS011;10871;50.144;8.428;2022-10-15T12:44:57;8.27;;;5.30;;
21420;SDS011;10871;50.144;8.428;2022-10-15T12:50:15;7.55;;;4.93;;
21420;SDS011;10871;50.144;8.428;2022-10-15T12:52:49;6.82;;;4.47;;
21420;SDS011;10871;50.144;8.428;2022-10-15T12:55:26;4.97;;;4.00;;
21420;SDS011;10871;50.144;8.428;2022-10-15T13:02:56;3.45;;;2.63;;
21420;SDS011;10871;50.144;8.428;2022-10-15T13:05:32;3.17;;;1.80;;
21420;SDS011;10871;50.144;8.428;2022-10-15T13:08:00;2.35;;;2.10;;
21420;SDS011;10871;50.144;8.428;2022-10-15T13:10:33;4.60;;;1.70;;
21420;SDS011;10871;50.144;8.428;2022-10-15T13:13:01;1.95;;;1.27;;
21420;SDS011;10871;50.144;8.428;2022-10-15T13:15:28;1.27;;;1.00;;
21420;SDS011;10871;50.144;8.428;2022-10-15T13:17:56;2.30;;;1.10;;
21420;SDS011;10871;50.144;8.428;2022-10-15T13:23:16;2.90;;;1.00;;
21420;SDS011;10871;50.144;8.428;2022-10-15T13:28:41;0.93;;;0.68;;
21420;SDS011;10871;50.144;8.428;2022-10-15T13:33:41;1.95;;;0.80;;
21420;SDS011;10871;50.144;8.428;2022-10-15T13:36:08;1.65;;;0.73;;
21420;SDS011;10871;50.144;8.428;2022-10-15T13:38:38;1.05;;;0.80;;
21420;SDS011;10871;50.144;8.428;2022-10-15T13:41:12;2.35;;;0.80;;
21420;SDS011;10871;50.144;8.428;2022-10-15T13:43:38;0.70;;;0.60;;
21420;SDS011;10871;50.144;8.428;2022-10-15T13:46:15;0.60;;;0.60;;
21420;SDS011;10871;50.144;8.428;2022-10-15T13:48:41;1.88;;;0.70;;
21420;SDS011;10871;50.144;8.428;2022-10-15T13:51:09;1.90;;;0.90;;
21420;SDS011;10871;50.144;8.428;2022-10-15T13:53:36;1.92;;;0.80;;
21420;SDS011;10871;50.144;8.428;2022-10-15T13:59:00;1.60;;;0.70;;
21420;SDS011;10871;50.144;8.428;2022-10-15T14:01:28;0.77;;;0.77;;
21420;SDS011;10871;50.144;8.428;2022-10-15T14:03:58;0.95;;;0.60;;
21420;SDS011;10871;50.144;8.428;2022-10-15T14:06:29;1.85;;;0.60;;
21420;SDS011;10871;50.144;8.428;2022-10-15T14:08:56;0.93;;;0.60;;
21420;SDS011;10871;50.144;8.428;2022-10-15T14:11:24;1.60;;;0.50;;
21420;SDS011;10871;50.144;8.428;2022-10-15T14:13:52;1.48;;;0.60;;
21420;SDS011;10871;50.144;8.428;2022-10-15T14:16:38;2.83;;;0.75;;
21420;SDS011;10871;50.144;8.428;2022-10-15T14:19:07;0.65;;;0.60;;
21420;SDS011;10871;50.144;8.428;2022-10-15T14:21:34;0.70;;;0.70;;
21420;SDS011;10871;50.144;8.428;2022-10-15T14:24:05;2.83;;;0.70;;
21420;SDS011;10871;50.144;8.428;2022-10-15T14:26:32;3.33;;;0.77;;
21420;SDS011;10871;50.144;8.428;2022-10-15T14:29:00;0.85;;;0.70;;
21420;SDS011;10871;50.144;8.428;2022-10-15T14:33:59;1.00;;;0.90;;
21420;SDS011;10871;50.144;8.428;2022-10-15T14:36:27;2.70;;;0.80;;
21420;SDS011;10871;50.144;8.428;2022-10-15T14:38:53;0.80;;;0.70;;
21420;SDS011;10871;50.144;8.428;2022-10-15T14:41:22;0.93;;;0.80;;
21420;SDS011;10871;50.144;8.428;2022-10-15T14:43:58;2.38;;;0.90;;
21420;SDS011;10871;50.144;8.428;2022-10-15T14:46:25;2.30;;;0.80;;
21420;SDS011;10871;50.144;8.428;2022-10-15T14:48:52;1.23;;;0.80;;
21420;SDS011;10871;50.144;8.428;2022-10-15T14:51:22;2.30;;;1.00;;
21420;SDS011;10871;50.144;8.428;2022-10-15T14:53:49;1.42;;;0.80;;
21420;SDS011;10871;50.144;8.428;2022-10-15T14:56:21;13.10;;;1.00;;
21420;SDS011;10871;50.144;8.428;2022-10-15T14:58:50;2.08;;;0.75;;
21420;SDS011;10871;50.144;8.428;2022-10-15T15:01:18;1.95;;;0.60;;
21420;SDS011;10871;50.144;8.428;2022-10-15T15:03:49;2.05;;;0.85;;
21420;SDS011;10871;50.144;8.428;2022-10-15T15:06:15;1.67;;;1.00;;
21420;SDS011;10871;50.144;8.428;2022-10-15T15:08:42;1.00;;;0.90;;
21420;SDS011;10871;50.144;8.428;2022-10-15T15:11:10;3.60;;;1.10;;
21420;SDS011;10871;50.144;8.428;2022-10-15T15:13:41;3.10;;;1.13;;
21420;SDS011;10871;50.144;8.428;2022-10-15T15:16:08;1.30;;;1.20;;
21420;SDS011;10871;50.144;8.428;2022-10-15T15:18:36;1.00;;;0.90;;
21420;SDS011;10871;50.144;8.428;2022-10-15T15:21:03;3.97;;;0.90;;
21420;SDS011;10871;50.144;8.428;2022-10-15T15:23:30;2.58;;;0.82;;
21420;SDS011;10871;50.144;8.428;2022-10-15T15:25:57;1.60;;;0.70;;
21420;SDS011;10871;50.144;8.428;2022-10-15T15:28:24;0.95;;;0.70;;
21420;SDS011;10871;50.144;8.428;2022-10-15T15:30:57;0.95;;;0.50;;
21420;SDS011;10871;50.144;8.428;2022-10-15T15:33:24;1.85;;;0.47;;
21420;SDS011;10871;50.144;8.428;2022-10-15T15:38:21;1.08;;;0.82;;
21420;SDS011;10871;50.144;8.428;2022-10-15T15:40:48;0.93;;;0.82;;
21420;SDS011;10871;50.144;8.428;2022-10-15T15:43:15;0.60;;;0.57;;
21420;SDS011;10871;50.144;8.428;2022-10-15T15:45:42;3.00;;;0.90;;
21420;SDS011;10871;50.144;8.428;2022-10-15T15:48:09;2.78;;;0.70;;
21420;SDS011;10871;50.144;8.428;2022-10-15T15:50:35;2.58;;;0.70;;
21420;SDS011;10871;50.144;8.428;2022-10-15T15:53:02;0.60;;;0.60;;
21420;SDS011;10871;50.144;8.428;2022-10-15T15:55:29;0.60;;;0.50;;
21420;SDS011;10871;50.144;8.428;2022-10-15T15:57:55;2.28;;;0.50;;
21420;SDS011;10871;50.144;8.428;2022-10-15T16:00:21;1.77;;;0.60;;
21420;SDS011;10871;50.144;8.428;2022-10-15T16:02:47;1.95;;;0.60;;
21420;SDS011;10871;50.144;8.428;2022-10-15T16:05:14;3.92;;;0.75;;
21420;SDS011;10871;50.144;8.428;2022-10-15T16:07:42;1.13;;;0.80;;
21420;SDS011;10871;50.144;8.428;2022-10-15T16:10:08;1.20;;;0.70;;
21420;SDS011;10871;50.144;8.428;2022-10-15T16:12:40;0.70;;;0.70;;
21420;SDS011;10871;50.144;8.428;2022-10-15T16:15:08;1.55;;;0.50;;
21420;SDS011;10871;50.144;8.428;2022-10-15T16:17:40;0.82;;;0.60;;
21420;SDS011;10871;50.144;8.428;2022-10-15T16:20:06;1.05;;;0.65;;
21420;SDS011;10871;50.144;8.428;2022-10-15T16:22:33;0.88;;;0.73;;
21420;SDS011;10871;50.144;8.428;2022-10-15T16:24:59;2.08;;;0.70;;
21420;SDS011;10871;50.144;8.428;2022-10-15T16:27:25;0.60;;;0.60;;
21420;SDS011;10871;50.144;8.428;2022-10-15T16:29:52;0.80;;;0.80;;
21420;SDS011;10871;50.144;8.428;2022-10-15T16:32:19;1.33;;;0.77;;
21420;SDS011;10871;50.144;8.428;2022-10-15T16:34:45;3.55;;;0.90;;
21420;SDS011;10871;50.144;8.428;2022-10-15T16:37:11;2.80;;;0.77;;
21420;SDS011;10871;50.144;8.428;2022-10-15T16:39:38;0.60;;;0.60;;
21420;SDS011;10871;50.144;8.428;2022-10-15T16:42:04;0.63;;;0.60;;